createdAt,value
2018-04-17T00:01:10.775Z,21.60
2018-04-17T00:03:39.005Z,18.63
2018-04-17T00:06:07.260Z,19.23
2018-04-17T00:08:35.490Z,18.87
2018-04-17T00:11:03.714Z,22.93
2018-04-17T00:13:32.029Z,25.10
2018-04-17T00:16:01.025Z,17.27
2018-04-17T00:18:29.262Z,17.43
2018-04-17T00:20:57.538Z,18.83
2018-04-17T00:23:25.785Z,17.60
2018-04-17T00:25:54.024Z,19.00
2018-04-17T00:28:22.267Z,23.67
2018-04-17T00:30:50.516Z,21.60
2018-04-17T00:33:18.737Z,20.87
2018-04-17T00:35:46.945Z,23.10
2018-04-17T00:38:15.938Z,27.77
2018-04-17T00:40:44.929Z,20.33
2018-04-17T00:43:13.149Z,19.40
2018-04-17T00:45:41.374Z,18.33
2018-04-17T00:48:09.636Z,20.97
2018-04-17T00:50:37.864Z,17.87
2018-04-17T00:53:17.989Z,22.20
2018-04-17T00:55:46.219Z,16.80
2018-04-17T00:58:14.456Z,21.97
2018-04-17T01:00:43.449Z,18.53
2018-04-17T01:03:12.433Z,17.00
2018-04-17T01:05:40.646Z,15.90
2018-04-17T01:08:10.568Z,21.77
2018-04-17T01:10:39.562Z,21.30
2018-04-17T01:13:07.790Z,24.77
2018-04-17T01:15:36.009Z,23.60
2018-04-17T01:18:04.232Z,19.97
2018-04-17T01:20:32.456Z,21.43
2018-04-17T01:23:00.769Z,20.63
2018-04-17T01:25:28.993Z,20.57
2018-04-17T01:27:57.372Z,23.63
2018-04-17T01:30:25.668Z,22.80
2018-04-17T01:32:53.917Z,17.23
2018-04-17T01:35:22.173Z,18.17
2018-04-17T01:37:51.173Z,20.83
2018-04-17T01:40:20.164Z,21.50
2018-04-17T01:42:48.389Z,29.83
2018-04-17T01:45:16.605Z,24.80
2018-04-17T01:47:45.297Z,17.23
2018-04-17T01:50:13.528Z,26.37
2018-04-17T01:52:42.521Z,22.93
2018-04-17T01:55:10.736Z,21.43
2018-04-17T01:57:39.734Z,19.80
2018-04-17T02:00:08.715Z,21.13
2018-04-17T02:02:36.933Z,20.07
2018-04-17T02:05:05.943Z,21.43
2018-04-17T02:07:34.938Z,22.77
2018-04-17T02:10:03.927Z,23.00
2018-04-17T02:12:32.157Z,18.03
2018-04-17T02:15:00.400Z,24.70
2018-04-17T02:17:28.621Z,22.47
2018-04-17T02:19:57.661Z,22.60
2018-04-17T02:22:25.949Z,24.30
2018-04-17T02:24:54.363Z,19.93
2018-04-17T02:27:22.601Z,20.03
2018-04-17T02:29:50.896Z,20.20
2018-04-17T02:32:19.129Z,21.37
2018-04-17T02:34:47.369Z,19.87
2018-04-17T02:37:15.588Z,24.37
2018-04-17T02:39:43.803Z,21.37
2018-04-17T02:42:12.046Z,16.40
2018-04-17T02:44:40.264Z,22.23
2018-04-17T02:47:08.496Z,21.43
2018-04-17T02:49:37.489Z,19.20
2018-04-17T02:52:05.715Z,17.20
2018-04-17T02:54:33.938Z,21.30
2018-04-17T02:57:02.162Z,19.50
2018-04-17T02:59:31.171Z,21.67
2018-04-17T03:02:00.157Z,20.43
2018-04-17T03:04:28.434Z,20.90
2018-04-17T03:06:56.679Z,22.00
2018-04-17T03:09:24.933Z,21.70
2018-04-17T03:11:53.157Z,21.13
2018-04-17T03:14:22.226Z,18.70
2018-04-17T03:16:51.236Z,22.27
2018-04-17T03:19:20.232Z,21.47
2018-04-17T03:21:48.465Z,20.03
2018-04-17T03:24:16.686Z,17.77
2018-04-17T03:26:44.894Z,19.37
2018-04-17T03:29:13.895Z,19.10
2018-04-17T03:31:42.148Z,22.13
2018-04-17T03:34:10.362Z,22.60
2018-04-17T03:36:38.593Z,18.70
2018-04-17T03:39:07.573Z,23.33
2018-04-17T03:41:36.561Z,23.20
2018-04-17T03:44:04.784Z,27.40
2018-04-17T03:46:33.006Z,20.23
2018-04-17T03:49:01.246Z,24.93
2018-04-17T03:51:30.294Z,17.47
2018-04-17T03:53:58.529Z,20.53
2018-04-17T03:56:26.763Z,23.77
2018-04-17T03:58:55.021Z,19.03
2018-04-17T04:01:23.266Z,17.20
2018-04-17T04:03:51.474Z,26.30
2018-04-17T04:06:19.702Z,24.40
2018-04-17T04:08:47.930Z,21.90
2018-04-17T04:11:16.150Z,21.87
2018-04-17T04:13:45.250Z,20.03
2018-04-17T04:16:25.269Z,19.97
2018-04-17T04:19:05.538Z,28.20
2018-04-17T04:21:45.641Z,18.97
2018-04-17T04:24:25.929Z,17.97
2018-04-17T04:26:54.177Z,18.97
2018-04-17T04:29:22.444Z,22.17
2018-04-17T04:31:50.710Z,28.10
2018-04-17T04:34:19.704Z,19.67
2018-04-17T04:36:47.921Z,26.93
2018-04-17T04:39:16.274Z,22.73
2018-04-17T04:41:44.466Z,29.60
2018-04-17T04:44:13.482Z,27.30
2018-04-17T04:46:42.470Z,23.73
2018-04-17T04:49:10.693Z,22.80
2018-04-17T04:51:38.919Z,25.13
2018-04-17T04:54:07.249Z,23.90
2018-04-17T04:56:36.305Z,19.43
2018-04-17T04:59:04.706Z,26.97
2018-04-17T05:01:32.933Z,31.90
2018-04-17T05:04:01.145Z,20.03
2018-04-17T05:06:29.406Z,25.50
2018-04-17T05:08:57.680Z,24.10
2018-04-17T05:11:25.907Z,25.37
2018-04-17T05:13:55.227Z,24.57
2018-04-17T05:16:23.505Z,27.07
2018-04-17T05:18:52.503Z,24.10
2018-04-17T05:21:20.739Z,21.20
2018-04-17T05:23:48.969Z,24.17
2018-04-17T05:26:17.733Z,27.13
2018-04-17T05:28:45.976Z,24.90
2018-04-17T05:31:14.985Z,24.10
2018-04-17T05:33:43.966Z,26.63
2018-04-17T05:36:12.180Z,23.13
2018-04-17T05:38:40.414Z,21.50
2018-04-17T05:41:08.642Z,27.03
2018-04-17T05:43:37.645Z,25.87
2018-04-17T05:46:05.893Z,23.70
2018-04-17T05:48:34.124Z,27.70
2018-04-17T05:51:03.184Z,24.23
2018-04-17T05:53:31.377Z,27.10
2018-04-17T05:56:00.529Z,28.40
2018-04-17T05:58:29.445Z,31.63
2018-04-17T06:00:58.437Z,29.97
2018-04-17T06:03:27.461Z,24.30
2018-04-17T06:05:56.493Z,29.23
2018-04-17T06:08:24.741Z,26.33
2018-04-17T06:10:53.782Z,26.63
2018-04-17T06:13:22.957Z,29.30
2018-04-17T06:15:52.012Z,30.57
2018-04-17T06:18:20.268Z,25.73
2018-04-17T06:20:49.264Z,34.93
2018-04-17T06:23:17.480Z,32.00
2018-04-17T06:25:45.693Z,22.47
2018-04-17T06:28:13.913Z,26.13
2018-04-17T06:30:42.901Z,18.37
2018-04-17T06:33:11.142Z,24.07
2018-04-17T06:35:39.382Z,20.37
2018-04-17T06:38:07.601Z,23.13
2018-04-17T06:40:36.595Z,26.13
2018-04-17T06:43:05.581Z,21.80
2018-04-17T06:45:33.813Z,25.37
2018-04-17T06:48:02.041Z,24.03
2018-04-17T06:50:31.036Z,24.00
2018-04-17T06:52:59.371Z,22.63
2018-04-17T06:55:27.612Z,22.20
2018-04-17T06:57:55.871Z,25.83
2018-04-17T07:00:24.891Z,21.90
2018-04-17T07:02:53.136Z,23.27
2018-04-17T07:05:21.427Z,23.90
2018-04-17T07:07:49.613Z,23.63
2018-04-17T07:10:17.820Z,22.80
2018-04-17T07:12:46.045Z,24.13
2018-04-17T07:15:14.272Z,21.93
2018-04-17T07:17:42.507Z,22.23
2018-04-17T07:20:10.721Z,23.33
2018-04-17T07:22:38.970Z,21.67
2018-04-17T07:25:07.196Z,21.90
2018-04-17T07:27:36.182Z,23.93
2018-04-17T07:30:04.421Z,25.80
2018-04-17T07:32:32.633Z,21.57
2018-04-17T07:35:00.866Z,18.43
2018-04-17T07:37:29.931Z,21.63
2018-04-17T07:39:58.925Z,18.33
2018-04-17T07:42:27.998Z,21.13
2018-04-17T07:44:56.251Z,23.40
2018-04-17T07:47:31.362Z,20.90
2018-04-17T07:50:00.284Z,23.63
2018-04-17T07:52:28.520Z,19.50
2018-04-17T07:54:56.801Z,20.93
2018-04-17T07:57:25.046Z,22.27
2018-04-17T07:59:54.194Z,14.13
2018-04-17T08:02:22.415Z,12.10
2018-04-17T08:04:50.629Z,20.20
2018-04-17T08:07:18.857Z,14.00
2018-04-17T08:09:47.106Z,18.83
2018-04-17T08:12:16.078Z,14.83
2018-04-17T08:14:44.310Z,10.67
2018-04-17T08:17:12.527Z,12.83
2018-04-17T08:19:40.738Z,9.67
2018-04-17T08:22:08.965Z,11.60
2018-04-17T08:24:37.192Z,12.20
2018-04-17T08:27:05.449Z,13.20
2018-04-17T08:29:33.674Z,15.10
2018-04-17T08:32:01.910Z,14.40
2018-04-17T08:34:30.908Z,14.97
2018-04-17T08:36:59.946Z,11.90
2018-04-17T08:39:28.112Z,11.63
2018-04-17T08:41:57.133Z,13.40
2018-04-17T08:44:25.361Z,17.20
2018-04-17T08:46:53.588Z,13.60
2018-04-17T08:49:22.631Z,14.90
2018-04-17T08:51:50.857Z,13.80
2018-04-17T08:54:19.081Z,13.07
2018-04-17T08:56:47.430Z,15.27
2018-04-17T08:59:15.625Z,16.83
2018-04-17T09:01:43.878Z,17.33
2018-04-17T09:04:12.074Z,15.40
2018-04-17T09:06:40.302Z,12.70
2018-04-17T09:09:09.293Z,12.47
2018-04-17T09:11:37.541Z,13.27
2018-04-17T09:14:05.779Z,12.70
2018-04-17T09:16:33.986Z,13.77
2018-04-17T09:19:02.977Z,16.87
2018-04-17T09:21:31.191Z,14.53
2018-04-17T09:23:59.433Z,20.27
2018-04-17T09:26:27.662Z,5.30
2018-04-17T09:28:55.920Z,16.40
2018-04-17T09:31:24.360Z,22.00
2018-04-17T09:33:52.586Z,14.63
2018-04-17T09:36:20.824Z,35.70
2018-04-17T09:38:49.070Z,13.23
2018-04-17T09:41:17.285Z,12.50
2018-04-17T09:43:46.278Z,13.37
2018-04-17T09:46:15.265Z,12.33
2018-04-17T09:48:43.481Z,9.53
2018-04-17T09:51:12.522Z,18.03
2018-04-17T09:53:41.496Z,12.43
2018-04-17T09:56:09.724Z,15.73
2018-04-17T09:58:37.934Z,16.53
2018-04-17T10:01:11.869Z,9.60
2018-04-17T10:03:40.108Z,16.37
2018-04-17T10:06:08.337Z,16.90
2018-04-17T10:08:36.566Z,18.03
2018-04-17T10:11:04.797Z,10.90
2018-04-17T10:13:33.016Z,12.87
2018-04-17T10:16:02.012Z,12.43
2018-04-17T10:18:30.282Z,7.40
2018-04-17T10:20:58.585Z,17.90
2018-04-17T10:23:26.885Z,22.43
2018-04-17T10:25:56.613Z,14.03
2018-04-17T10:28:24.853Z,5.70
2018-04-17T10:30:53.073Z,7.37
2018-04-17T10:33:21.361Z,17.13
2018-04-17T10:35:49.561Z,15.53
2018-04-17T10:38:17.853Z,7.80
2018-04-17T10:40:46.852Z,15.13
2018-04-17T10:43:15.078Z,14.20
2018-04-17T10:45:43.314Z,15.77
2018-04-17T10:48:11.552Z,8.80
2018-04-17T10:50:39.768Z,18.37
2018-04-17T10:53:08.764Z,12.90
2018-04-17T10:55:36.988Z,17.67
2018-04-17T10:58:05.204Z,15.63
2018-04-17T11:00:34.189Z,13.83
2018-04-17T11:03:02.761Z,13.13
2018-04-17T11:05:31.018Z,14.87
2018-04-17T11:08:00.001Z,10.00
2018-04-17T11:10:29.009Z,17.47
2018-04-17T11:12:57.225Z,14.23
2018-04-17T11:15:25.511Z,18.20
2018-04-17T11:17:53.963Z,10.53
2018-04-17T11:20:22.197Z,10.27
2018-04-17T11:22:50.463Z,13.63
2018-04-17T11:25:19.447Z,10.97
2018-04-17T11:27:48.537Z,12.70
2018-04-17T11:30:17.554Z,9.80
2018-04-17T11:32:45.782Z,10.07
2018-04-17T11:35:14.118Z,16.20
2018-04-17T11:37:42.298Z,15.97
2018-04-17T11:40:10.534Z,11.77
2018-04-17T11:42:38.749Z,14.43
2018-04-17T11:45:06.969Z,14.53
2018-04-17T11:47:35.253Z,12.37
2018-04-17T11:50:03.503Z,13.20
2018-04-17T11:52:31.721Z,13.70
2018-04-17T11:54:59.952Z,12.10
2018-04-17T11:57:28.985Z,11.20
2018-04-17T11:59:57.943Z,9.33
2018-04-17T12:02:26.215Z,7.70
2018-04-17T12:04:54.429Z,4.50
2018-04-17T12:07:22.673Z,6.37
2018-04-17T12:09:50.896Z,6.13
2018-04-17T12:12:19.125Z,9.53
2018-04-17T12:14:47.333Z,5.97
2018-04-17T12:17:15.553Z,6.23
2018-04-17T12:19:43.797Z,15.77
2018-04-17T12:22:12.020Z,13.70
2018-04-17T12:24:40.225Z,11.30
2018-04-17T12:27:09.221Z,11.13
2018-04-17T12:29:37.438Z,14.00
2018-04-17T12:32:05.668Z,10.70
2018-04-17T12:34:33.945Z,14.33
2018-04-17T12:37:02.895Z,15.27
2018-04-17T12:39:31.096Z,4.33
2018-04-17T12:42:00.089Z,13.53
2018-04-17T12:44:28.391Z,13.97
2018-04-17T12:46:57.769Z,10.20
2018-04-17T12:49:26.010Z,9.00
2018-04-17T12:51:54.323Z,12.27
2018-04-17T12:54:22.485Z,14.20
2018-04-17T12:56:50.747Z,10.10
2018-04-17T12:59:19.733Z,12.73
2018-04-17T13:01:47.953Z,15.60
2018-04-17T13:04:16.937Z,11.37
2018-04-17T13:06:45.157Z,8.17
2018-04-17T13:09:13.382Z,12.93
2018-04-17T13:11:41.653Z,17.93
2018-04-17T13:14:09.892Z,8.80
2018-04-17T13:16:38.113Z,12.80
2018-04-17T13:19:06.329Z,13.60
2018-04-17T13:21:34.558Z,12.63
2018-04-17T13:24:02.815Z,11.93
2018-04-17T13:26:31.056Z,12.63
2018-04-17T13:29:00.038Z,13.73
2018-04-17T13:31:28.300Z,10.30
2018-04-17T13:33:57.355Z,9.97
2018-04-17T13:36:26.429Z,10.03
2018-04-17T13:38:54.662Z,12.50
2018-04-17T13:41:23.745Z,13.70
2018-04-17T13:43:53.502Z,12.57
2018-04-17T13:46:21.753Z,13.13
2018-04-17T13:48:50.045Z,12.93
2018-04-17T13:51:19.083Z,14.00
2018-04-17T13:53:47.261Z,16.07
2018-04-17T13:56:15.498Z,5.20
2018-04-17T13:58:43.715Z,11.10
2018-04-17T14:01:12.704Z,12.57
2018-04-17T14:03:40.929Z,14.93
2018-04-17T14:06:09.147Z,13.40
2018-04-17T14:08:37.364Z,10.20
2018-04-17T14:11:05.586Z,12.40
2018-04-17T14:13:34.572Z,14.33
2018-04-17T14:16:02.833Z,14.30
2018-04-17T14:18:31.054Z,13.73
2018-04-17T14:21:00.068Z,12.13
2018-04-17T14:23:29.143Z,15.10
2018-04-17T14:25:57.567Z,12.50
2018-04-17T14:28:26.552Z,12.93
2018-04-17T14:30:55.022Z,15.23
2018-04-17T14:33:23.284Z,9.63
2018-04-17T14:35:51.570Z,15.60
2018-04-17T14:38:19.818Z,7.03
2018-04-17T14:40:48.041Z,16.20
2018-04-17T14:43:16.261Z,12.00
2018-04-17T14:45:44.513Z,13.63
2018-04-17T14:48:12.737Z,13.60
2018-04-17T14:50:42.498Z,14.53
2018-04-17T14:53:11.522Z,12.40
2018-04-17T14:55:39.757Z,11.40
2018-04-17T14:58:08.693Z,11.87
2018-04-17T15:00:37.005Z,9.93
2018-04-17T15:03:05.180Z,10.77
2018-04-17T15:05:34.182Z,15.50
2018-04-17T15:08:03.182Z,10.07
2018-04-17T15:10:31.408Z,5.53
2018-04-17T15:12:59.641Z,12.90
2018-04-17T15:15:27.870Z,16.17
2018-04-17T15:17:56.115Z,18.50
2018-04-17T15:20:24.371Z,17.13
2018-04-17T15:22:52.632Z,15.50
2018-04-17T15:25:20.923Z,16.77
2018-04-17T15:27:49.907Z,7.17
2018-04-17T15:30:18.886Z,12.90
2018-04-17T15:32:47.110Z,17.17
2018-04-17T15:35:16.087Z,14.60
2018-04-17T15:37:44.309Z,14.03
2018-04-17T15:40:12.537Z,16.33
2018-04-17T15:42:40.765Z,14.87
2018-04-17T15:45:09.749Z,11.10
2018-04-17T15:47:37.977Z,13.93
2018-04-17T15:50:06.222Z,12.47
2018-04-17T15:52:34.457Z,17.90
2018-04-17T15:55:03.505Z,15.67
2018-04-17T15:57:31.722Z,16.23
2018-04-17T16:00:00.042Z,12.67
2018-04-17T16:02:28.291Z,6.10
2018-04-17T16:04:56.520Z,15.70
2018-04-17T16:07:24.766Z,7.33
2018-04-17T16:09:53.103Z,11.73
2018-04-17T16:12:27.310Z,14.97
2018-04-17T16:14:55.566Z,14.53
2018-04-17T16:17:25.323Z,12.33
2018-04-17T16:19:54.330Z,10.53
2018-04-17T16:22:23.381Z,16.77
2018-04-17T16:24:59.590Z,6.03
2018-04-17T16:27:29.561Z,12.60
2018-04-17T16:29:57.813Z,15.87
2018-04-17T16:32:26.820Z,14.27
2018-04-17T16:34:55.912Z,10.93
2018-04-17T16:37:24.253Z,12.63
2018-04-17T16:39:52.606Z,17.00
2018-04-17T16:42:20.879Z,18.23
2018-04-17T16:44:49.118Z,12.13
2018-04-17T16:47:17.325Z,12.77
2018-04-17T16:49:45.583Z,10.80
2018-04-17T16:52:14.589Z,10.30
2018-04-17T16:54:43.576Z,5.20
2018-04-17T16:57:11.801Z,13.10
2018-04-17T16:59:40.073Z,17.37
2018-04-17T17:02:08.250Z,4.60
2018-04-17T17:04:37.232Z,9.30
2018-04-17T17:07:05.445Z,13.07
2018-04-17T17:09:35.312Z,10.90
2018-04-17T17:12:03.522Z,9.47
2018-04-17T17:14:31.738Z,16.40
2018-04-17T17:16:59.984Z,9.20
2018-04-17T17:19:28.244Z,13.60
2018-04-17T17:21:57.248Z,19.50
2018-04-17T17:24:25.482Z,14.40
2018-04-17T17:26:54.537Z,16.20
2018-04-17T17:29:23.541Z,15.63
2018-04-17T17:31:52.745Z,15.80
2018-04-17T17:34:21.798Z,16.70
2018-04-17T17:36:50.022Z,16.67
2018-04-17T17:39:18.256Z,13.93
2018-04-17T17:41:46.486Z,13.17
2018-04-17T17:44:14.729Z,17.67
2018-04-17T17:46:42.963Z,13.97
2018-04-17T17:49:11.174Z,14.63
2018-04-17T17:51:40.155Z,11.70
2018-04-17T17:54:08.369Z,11.70
2018-04-17T17:56:37.371Z,15.60
2018-04-17T17:59:05.694Z,17.07
2018-04-17T18:01:33.866Z,13.47
2018-04-17T18:04:02.086Z,13.87
2018-04-17T18:06:30.328Z,19.33
2018-04-17T18:08:59.376Z,17.80
2018-04-17T18:11:27.634Z,19.13
2018-04-17T18:13:55.990Z,15.00
2018-04-17T18:16:24.242Z,15.57
2018-04-17T18:18:52.473Z,15.53
2018-04-17T18:21:20.722Z,15.73
2018-04-17T18:23:48.952Z,17.63
2018-04-17T18:26:17.169Z,15.23
2018-04-17T18:28:45.391Z,15.57
2018-04-17T18:31:13.604Z,16.77
2018-04-17T18:33:41.839Z,14.87
2018-04-17T18:36:10.063Z,16.67
2018-04-17T18:38:38.321Z,17.23
2018-04-17T18:41:11.367Z,13.63
2018-04-17T18:43:39.689Z,12.83
2018-04-17T18:46:11.965Z,16.37
2018-04-17T18:48:40.180Z,18.57
2018-04-17T18:51:08.455Z,11.43
2018-04-17T18:53:37.526Z,15.53
2018-04-17T18:56:05.759Z,16.50
2018-04-17T18:58:33.954Z,14.30
2018-04-17T19:01:02.170Z,12.67
2018-04-17T19:03:30.413Z,15.33
2018-04-17T19:05:58.690Z,15.33
2018-04-17T19:08:27.705Z,20.40
2018-04-17T19:10:57.564Z,17.53
2018-04-17T19:13:25.799Z,13.10
2018-04-17T19:15:54.061Z,14.03
2018-04-17T19:18:22.293Z,14.83
2018-04-17T19:20:51.345Z,12.47
2018-04-17T19:23:19.570Z,4.13
2018-04-17T19:25:47.788Z,4.27
2018-04-17T19:28:16.017Z,15.63
2018-04-17T19:30:44.361Z,6.67
2018-04-17T19:33:12.597Z,19.67
2018-04-17T19:35:40.822Z,11.13
2018-04-17T19:38:09.821Z,23.33
2018-04-17T19:40:38.033Z,4.63
2018-04-17T19:43:06.249Z,6.07
2018-04-17T19:45:34.481Z,3.47
2018-04-17T19:48:02.698Z,15.73
2018-04-17T19:50:30.928Z,15.97
2018-04-17T19:52:59.165Z,17.30
2018-04-17T19:55:27.466Z,14.57
2018-04-17T19:57:56.441Z,12.57
2018-04-17T20:00:24.777Z,15.97
2018-04-17T20:02:53.042Z,12.80
2018-04-17T20:05:21.980Z,17.77
2018-04-17T20:07:50.175Z,18.37
2018-04-17T20:10:18.398Z,22.37
2018-04-17T20:12:47.382Z,15.10
2018-04-17T20:15:15.606Z,8.37
2018-04-17T20:17:44.605Z,18.60
2018-04-17T20:20:13.585Z,16.43
2018-04-17T20:22:41.853Z,16.77
2018-04-17T20:25:10.072Z,15.17
2018-04-17T20:27:38.310Z,16.93
2018-04-17T20:30:06.539Z,16.27
2018-04-17T20:32:34.753Z,12.37
2018-04-17T20:35:03.737Z,16.73
2018-04-17T20:37:31.965Z,16.67
2018-04-17T20:40:00.182Z,16.27
2018-04-17T20:42:28.419Z,17.27
2018-04-17T20:44:57.419Z,14.63
2018-04-17T20:47:26.430Z,13.50
2018-04-17T20:49:54.687Z,18.33
2018-04-17T20:52:22.930Z,12.60
2018-04-17T20:54:51.172Z,15.03
2018-04-17T20:57:19.403Z,16.50
2018-04-17T20:59:47.633Z,12.63
2018-04-17T21:02:15.858Z,16.90
2018-04-17T21:04:44.848Z,13.93
2018-04-17T21:07:13.081Z,14.37
2018-04-17T21:09:41.306Z,14.07
2018-04-17T21:12:09.516Z,17.83
2018-04-17T21:14:38.527Z,12.30
2018-04-17T21:17:07.514Z,16.87
2018-04-17T21:19:35.729Z,14.97
2018-04-17T21:22:04.728Z,16.73
2018-04-17T21:24:33.799Z,15.53
2018-04-17T21:27:02.013Z,17.47
2018-04-17T21:29:30.249Z,14.37
2018-04-17T21:31:58.499Z,18.43
2018-04-17T21:34:27.509Z,15.87
2018-04-17T21:36:56.500Z,16.33
2018-04-17T21:39:24.749Z,14.40
2018-04-17T21:41:53.003Z,15.07
2018-04-17T21:44:22.014Z,16.90
2018-04-17T21:46:50.251Z,17.43
2018-04-17T21:49:18.457Z,14.03
2018-04-17T21:51:46.668Z,16.97
2018-04-17T21:54:15.653Z,14.00
2018-04-17T21:56:43.882Z,12.87
2018-04-17T21:59:12.107Z,17.17
2018-04-17T22:01:40.328Z,12.07
2018-04-17T22:04:09.308Z,14.60
2018-04-17T22:06:37.537Z,12.73
2018-04-17T22:09:05.764Z,14.77
2018-04-17T22:11:33.978Z,16.27
2018-04-17T22:14:02.249Z,14.43
2018-04-17T22:16:30.479Z,14.07
2018-04-17T22:18:59.471Z,16.20
2018-04-17T22:21:28.471Z,11.47
2018-04-17T22:23:56.693Z,13.70
2018-04-17T22:26:24.936Z,11.17
2018-04-17T22:28:53.176Z,14.63
2018-04-17T22:31:21.479Z,8.73
2018-04-17T22:33:49.733Z,15.33
2018-04-17T22:36:18.718Z,12.63
2018-04-17T22:38:46.949Z,12.97
2018-04-17T22:41:15.189Z,12.40
2018-04-17T22:43:43.401Z,15.47
2018-04-17T22:46:12.389Z,12.90
2018-04-17T22:48:41.439Z,14.27
2018-04-17T22:51:09.671Z,15.43
2018-04-17T22:53:37.922Z,16.17
2018-04-17T22:56:06.173Z,13.77
2018-04-17T22:58:34.441Z,12.67
2018-04-17T23:01:02.653Z,11.47
2018-04-17T23:03:31.645Z,13.47
2018-04-17T23:06:01.501Z,11.33
2018-04-17T23:08:29.733Z,15.00
2018-04-17T23:10:57.967Z,12.77
2018-04-17T23:13:26.201Z,15.33
2018-04-17T23:15:54.457Z,13.20
2018-04-17T23:18:22.694Z,14.03
2018-04-17T23:20:50.927Z,12.93
2018-04-17T23:23:19.145Z,11.63
2018-04-17T23:25:48.124Z,16.67
2018-04-17T23:28:16.344Z,17.00
2018-04-17T23:30:44.575Z,15.80
2018-04-17T23:33:13.570Z,16.37
2018-04-17T23:35:42.559Z,14.40
2018-04-17T23:38:10.785Z,13.77
2018-04-17T23:40:39.008Z,15.00
2018-04-17T23:43:07.234Z,15.63
2018-04-17T23:45:35.462Z,16.20
2018-04-17T23:48:03.691Z,13.20
2018-04-17T23:50:31.925Z,13.07
2018-04-17T23:53:00.158Z,14.43
2018-04-17T23:55:28.409Z,11.53
2018-04-17T23:57:56.642Z,11.93
